createdAt,value
2018-05-07T04:12:10.715Z,372
2018-05-07T04:21:32.812Z,428
2018-05-07T04:29:47.222Z,472
2018-05-07T04:40:43.318Z,524
2018-05-07T04:42:33.698Z,532
2018-05-07T04:49:23.105Z,556
2018-05-07T05:00:33.868Z,592
2018-05-07T05:00:54.845Z,588
2018-05-07T05:01:15.625Z,592
2018-05-07T05:04:43.775Z,604
2018-05-07T05:05:04.173Z,608
2018-05-07T05:05:24.136Z,608
2018-05-07T05:05:44.452Z,612
2018-05-07T05:06:51.141Z,612
2018-05-07T05:07:11.615Z,612
2018-05-07T05:07:32.407Z,616
2018-05-07T05:07:52.772Z,616
2018-05-07T05:08:14.044Z,616
2018-05-07T05:08:34.708Z,620
2018-05-07T05:08:55.408Z,620
2018-05-07T05:09:15.784Z,624
2018-05-07T05:09:36.143Z,624
2018-05-07T05:09:56.303Z,624
2018-05-07T05:10:16.710Z,624
2018-05-07T05:10:37.288Z,628
2018-05-07T05:10:58.604Z,628
2018-05-07T05:11:18.895Z,628
2018-05-07T05:11:39.883Z,632
2018-05-07T05:13:37.652Z,636
2018-05-07T05:13:58.073Z,636
2018-05-07T05:15:01.298Z,644
2018-05-07T05:15:21.552Z,644
2018-05-07T05:16:12.032Z,644
2018-05-07T05:17:03.518Z,648
2018-05-07T05:17:23.783Z,652
2018-05-07T05:18:21.147Z,652
2018-05-07T05:18:59.941Z,652
2018-05-07T05:19:20.841Z,652
2018-05-07T05:19:41.898Z,652
2018-05-07T05:20:36.487Z,652
2018-05-07T05:20:56.844Z,652
2018-05-07T05:21:17.033Z,652
2018-05-07T05:21:37.735Z,656
2018-05-07T05:21:58.567Z,656
2018-05-07T05:22:20.280Z,656
2018-05-07T05:22:40.504Z,656
2018-05-07T05:23:00.719Z,660
2018-05-07T05:23:37.140Z,660
2018-05-07T05:23:57.475Z,660
2018-05-07T05:24:17.725Z,664
2018-05-07T05:24:38.561Z,660
2018-05-07T05:25:33.292Z,660
2018-05-07T05:26:12.973Z,660
2018-05-07T05:27:35.907Z,656
2018-05-07T05:27:56.114Z,660
2018-05-07T05:28:17.154Z,656
2018-05-07T05:29:06.162Z,660
2018-05-07T05:29:57.912Z,664
2018-05-07T05:30:18.127Z,664
2018-05-07T05:30:38.375Z,664
2018-05-07T05:30:58.680Z,668
2018-05-07T05:31:18.885Z,668
2018-05-07T05:31:39.683Z,664
2018-05-07T05:31:59.863Z,664
2018-05-07T05:32:20.078Z,664
2018-05-07T05:32:40.307Z,664
2018-05-07T05:33:01.119Z,664
2018-05-07T05:33:21.565Z,664
2018-05-07T05:33:42.621Z,664
2018-05-07T05:34:03.627Z,664
2018-05-07T05:34:23.854Z,664
2018-05-07T05:34:44.086Z,664
2018-05-07T05:35:04.330Z,664
2018-05-07T05:35:24.648Z,668
2018-05-07T05:35:45.485Z,668
2018-05-07T05:36:07.146Z,668
2018-05-07T05:36:27.402Z,668
2018-05-07T05:36:47.709Z,668
2018-05-07T05:37:08.737Z,672
2018-05-07T05:37:28.973Z,672
2018-05-07T05:37:49.264Z,672
2018-05-07T05:38:09.850Z,672
2018-05-07T05:38:30.121Z,672
2018-05-07T05:38:50.420Z,672
2018-05-07T05:39:10.651Z,676
2018-05-07T05:39:30.941Z,676
2018-05-07T05:39:51.121Z,676
2018-05-07T05:40:11.316Z,672
2018-05-07T05:40:31.465Z,676
2018-05-07T05:40:51.730Z,672
2018-05-07T05:41:11.964Z,676
2018-05-07T05:41:32.129Z,676
2018-05-07T05:41:52.384Z,676
2018-05-07T05:42:12.693Z,680
2018-05-07T05:42:34.188Z,680
2018-05-07T05:42:54.369Z,676
2018-05-07T05:43:16.698Z,680
2018-05-07T05:43:37.649Z,680
2018-05-07T05:43:57.879Z,680
2018-05-07T05:44:18.232Z,684
2018-05-07T05:44:40.171Z,684
2018-05-07T05:45:01.115Z,684
2018-05-07T05:45:21.759Z,684
2018-05-07T05:45:41.983Z,684
2018-05-07T05:46:02.235Z,684
2018-05-07T05:46:23.130Z,684
2018-05-07T05:46:43.329Z,684
2018-05-07T05:47:03.667Z,684
2018-05-07T05:47:23.846Z,684
2018-05-07T05:47:44.040Z,688
2018-05-07T05:48:05.126Z,684
2018-05-07T05:48:25.366Z,688
2018-05-07T05:48:45.568Z,684
2018-05-07T05:49:05.821Z,688
2018-05-07T05:49:26.095Z,688
2018-05-07T05:49:46.243Z,688
2018-05-07T05:50:07.018Z,688
2018-05-07T05:50:27.125Z,688
2018-05-07T05:50:47.389Z,692
2018-05-07T05:51:07.688Z,692
2018-05-07T05:51:28.662Z,692
2018-05-07T05:51:48.905Z,692
2018-05-07T05:52:09.216Z,696
2018-05-07T05:52:29.484Z,696
2018-05-07T05:52:49.813Z,700
2018-05-07T05:53:10.172Z,696
2018-05-07T05:53:31.098Z,700
2018-05-07T05:53:51.384Z,700
2018-05-07T05:54:11.684Z,700
2018-05-07T05:54:31.932Z,700
2018-05-07T05:54:52.205Z,704
2018-05-07T05:55:12.447Z,700
2018-05-07T05:55:32.750Z,700
2018-05-07T05:55:53.644Z,700
2018-05-07T05:56:13.910Z,704
2018-05-07T05:56:34.210Z,704
2018-05-07T05:56:54.529Z,704
2018-05-07T05:57:15.451Z,704
2018-05-07T05:57:35.641Z,704
2018-05-07T05:57:56.541Z,708
2018-05-07T05:58:16.762Z,704
2018-05-07T05:58:36.981Z,704
2018-05-07T05:58:57.228Z,708
2018-05-07T05:59:17.485Z,708
2018-05-07T05:59:37.696Z,708
2018-05-07T05:59:58.700Z,704
2018-05-07T06:00:19.698Z,708
2018-05-07T06:00:39.866Z,712
2018-05-07T06:01:00.152Z,712
2018-05-07T06:01:20.546Z,712
2018-05-07T06:01:40.837Z,712
2018-05-07T06:02:01.715Z,712
2018-05-07T06:02:21.950Z,712
2018-05-07T06:02:42.609Z,712
2018-05-07T06:03:02.931Z,712
2018-05-07T06:03:23.131Z,712
2018-05-07T06:03:44.206Z,716
2018-05-07T06:04:04.456Z,712
2018-05-07T06:04:25.530Z,716
2018-05-07T06:04:45.826Z,716
2018-05-07T06:05:06.099Z,716
2018-05-07T06:05:26.293Z,716
2018-05-07T06:05:47.228Z,716
2018-05-07T06:06:07.563Z,716
2018-05-07T06:06:27.861Z,716
2018-05-07T06:06:48.148Z,720
2018-05-07T06:07:08.369Z,716
2018-05-07T06:07:28.658Z,716
2018-05-07T06:07:49.558Z,720
2018-05-07T06:08:09.817Z,720
2018-05-07T06:08:30.188Z,720
2018-05-07T06:08:50.429Z,716
2018-05-07T06:09:10.750Z,720
2018-05-07T06:09:30.977Z,720
2018-05-07T06:09:51.188Z,720
2018-05-07T06:10:11.488Z,716
2018-05-07T06:10:32.208Z,720
2018-05-07T06:10:52.447Z,720
2018-05-07T06:11:13.701Z,720
2018-05-07T06:11:34.051Z,720
2018-05-07T06:11:55.226Z,724
2018-05-07T06:12:15.720Z,720
2018-05-07T06:12:37.150Z,720
2018-05-07T06:12:58.143Z,724
2018-05-07T06:13:19.097Z,724
2018-05-07T06:13:39.379Z,724
2018-05-07T06:13:59.884Z,724
2018-05-07T06:14:20.181Z,720
2018-05-07T06:14:41.235Z,720
2018-05-07T06:15:01.925Z,720
2018-05-07T06:15:21.859Z,724
2018-05-07T06:15:42.223Z,724
2018-05-07T06:16:02.369Z,724
2018-05-07T06:16:23.149Z,724
2018-05-07T06:16:43.518Z,724
2018-05-07T06:17:04.671Z,728
2018-05-07T06:17:24.983Z,728
2018-05-07T06:17:45.287Z,728
2018-05-07T06:18:05.524Z,728
2018-05-07T06:18:25.939Z,732
2018-05-07T06:18:46.258Z,728
2018-05-07T06:19:08.225Z,732
2018-05-07T06:19:28.517Z,732
2018-05-07T06:19:48.835Z,732
2018-05-07T06:20:09.647Z,736
2018-05-07T06:20:31.713Z,736
2018-05-07T06:20:52.031Z,736
2018-05-07T06:21:14.189Z,736
2018-05-07T06:21:34.427Z,736
2018-05-07T06:21:54.713Z,740
2018-05-07T06:22:15.075Z,740
2018-05-07T06:22:35.432Z,744
2018-05-07T06:22:55.793Z,744
2018-05-07T06:23:16.014Z,744
2018-05-07T06:23:36.357Z,748
2018-05-07T06:23:56.620Z,748
2018-05-07T06:24:16.981Z,748
2018-05-07T06:24:37.274Z,748
2018-05-07T06:24:57.570Z,752
2018-05-07T06:25:17.871Z,756
2018-05-07T06:25:38.719Z,756
2018-05-07T06:26:00.055Z,756
2018-05-07T06:26:20.412Z,756
2018-05-07T06:26:40.732Z,760
2018-05-07T06:27:01.613Z,760
2018-05-07T06:27:22.075Z,756
2018-05-07T06:27:42.615Z,756
2018-05-07T06:28:02.944Z,756
2018-05-07T06:28:23.364Z,760
2018-05-07T06:28:43.669Z,760
2018-05-07T06:29:04.227Z,760
2018-05-07T06:29:24.638Z,760
2018-05-07T06:29:45.656Z,760
2018-05-07T06:30:06.037Z,760
2018-05-07T06:30:26.602Z,760
2018-05-07T06:30:47.750Z,764
2018-05-07T06:31:08.631Z,764
2018-05-07T06:31:28.936Z,764
2018-05-07T06:31:49.266Z,764
2018-05-07T06:32:09.520Z,764
2018-05-07T06:32:29.841Z,764
2018-05-07T06:32:50.686Z,764
2018-05-07T06:33:10.917Z,764
2018-05-07T06:33:31.111Z,764
2018-05-07T06:33:51.385Z,764
2018-05-07T06:34:11.593Z,764
2018-05-07T06:34:32.651Z,764
2018-05-07T06:34:53.584Z,764
2018-05-07T06:35:13.855Z,760
2018-05-07T06:35:36.007Z,760
2018-05-07T06:35:56.272Z,760
2018-05-07T06:36:16.555Z,760
2018-05-07T06:36:36.922Z,764
2018-05-07T06:36:57.216Z,764
2018-05-07T06:37:18.134Z,760
2018-05-07T06:37:39.065Z,764
2018-05-07T06:37:59.175Z,764
2018-05-07T06:38:19.476Z,764
2018-05-07T06:38:39.837Z,764
2018-05-07T06:39:00.183Z,764
2018-05-07T06:39:20.506Z,760
2018-05-07T06:39:40.770Z,764
2018-05-07T06:40:01.662Z,764
2018-05-07T06:40:21.917Z,764
2018-05-07T06:40:42.106Z,764
2018-05-07T06:41:02.418Z,764
2018-05-07T06:41:22.777Z,764
2018-05-07T06:41:43.169Z,768
2018-05-07T06:42:05.166Z,764
2018-05-07T06:42:26.150Z,768
2018-05-07T06:42:46.535Z,768
2018-05-07T06:43:06.893Z,764
2018-05-07T06:43:27.235Z,768
2018-05-07T06:43:47.605Z,768
2018-05-07T06:44:08.073Z,768
2018-05-07T06:44:29.210Z,768
2018-05-07T06:44:49.656Z,768
2018-05-07T06:45:10.344Z,768
2018-05-07T06:45:31.239Z,768
2018-05-07T06:45:51.823Z,772
2018-05-07T06:46:12.150Z,772
2018-05-07T06:46:32.569Z,772
2018-05-07T06:46:53.812Z,772
2018-05-07T06:47:14.499Z,772
2018-05-07T06:47:35.673Z,772
2018-05-07T06:47:56.089Z,772
2018-05-07T06:48:16.511Z,776
2018-05-07T06:48:37.674Z,776
2018-05-07T06:48:58.159Z,776
2018-05-07T06:49:18.639Z,780
2018-05-07T06:49:39.167Z,776
2018-05-07T06:49:59.603Z,780
2018-05-07T06:50:20.016Z,780
2018-05-07T06:50:40.431Z,780
2018-05-07T06:51:00.900Z,784
2018-05-07T06:51:21.603Z,780
2018-05-07T06:51:42.817Z,784
2018-05-07T06:52:03.357Z,788
2018-05-07T06:52:23.817Z,788
2018-05-07T06:52:44.169Z,788
2018-05-07T06:53:04.635Z,788
2018-05-07T06:53:25.001Z,788
2018-05-07T06:53:45.255Z,788
2018-05-07T06:54:05.775Z,792
2018-05-07T06:54:26.420Z,788
2018-05-07T06:54:46.842Z,792
2018-05-07T06:55:07.269Z,792
2018-05-07T06:55:28.726Z,796
2018-05-07T06:55:49.212Z,796
2018-05-07T06:56:09.782Z,796
2018-05-07T06:56:30.346Z,796
2018-05-07T06:56:51.757Z,800
2018-05-07T06:57:13.306Z,800
2018-05-07T06:57:33.903Z,800
2018-05-07T06:57:55.293Z,800
2018-05-07T06:58:15.776Z,804
2018-05-07T06:58:36.276Z,804
2018-05-07T06:58:57.309Z,804
2018-05-07T06:59:17.668Z,804
2018-05-07T06:59:38.155Z,812
2018-05-07T06:59:58.439Z,812
2018-05-07T07:00:19.662Z,816
2018-05-07T07:00:40.118Z,816
2018-05-07T07:01:00.401Z,820
2018-05-07T07:01:21.719Z,820
2018-05-07T07:01:43.191Z,824
2018-05-07T07:02:03.587Z,820
2018-05-07T07:02:24.111Z,824
2018-05-07T07:02:45.392Z,824
2018-05-07T07:03:05.758Z,824
2018-05-07T07:03:26.164Z,824
2018-05-07T07:03:46.548Z,824
2018-05-07T07:04:07.126Z,824
2018-05-07T07:04:28.321Z,824
2018-05-07T07:04:48.765Z,828
2018-05-07T07:05:08.895Z,824
2018-05-07T07:05:29.234Z,828
2018-05-07T07:05:49.641Z,824
2018-05-07T07:06:10.553Z,828
2018-05-07T07:06:31.661Z,828
2018-05-07T07:06:52.014Z,828
2018-05-07T07:07:12.371Z,828
2018-05-07T07:07:32.828Z,828
2018-05-07T07:07:54.755Z,828
2018-05-07T07:08:15.439Z,828
2018-05-07T07:08:36.314Z,828
2018-05-07T07:08:56.583Z,832
2018-05-07T07:09:16.964Z,832
2018-05-07T07:09:38.664Z,828
2018-05-07T07:09:59.746Z,832
2018-05-07T07:10:20.312Z,832
2018-05-07T07:10:41.588Z,828
2018-05-07T07:11:02.122Z,828
2018-05-07T07:11:23.184Z,832
2018-05-07T07:11:43.677Z,832
2018-05-07T07:12:04.025Z,836
2018-05-07T07:12:24.414Z,836
2018-05-07T07:12:45.250Z,832
2018-05-07T07:13:05.642Z,832
2018-05-07T07:13:26.676Z,836
2018-05-07T07:13:48.185Z,836
2018-05-07T07:14:09.268Z,832
2018-05-07T07:14:29.463Z,836
2018-05-07T07:14:50.695Z,836
2018-05-07T07:15:10.911Z,836
2018-05-07T07:15:32.180Z,836
2018-05-07T07:15:53.211Z,836
2018-05-07T07:16:13.702Z,840
2018-05-07T07:16:34.384Z,840
2018-05-07T07:16:55.059Z,840
2018-05-07T07:17:16.461Z,840
2018-05-07T07:17:37.755Z,840
2018-05-07T07:17:58.084Z,840
2018-05-07T07:18:18.453Z,844
2018-05-07T07:18:39.295Z,848
2018-05-07T07:18:59.812Z,844
2018-05-07T07:19:21.202Z,848
2018-05-07T07:19:41.618Z,848
2018-05-07T07:20:02.088Z,848
2018-05-07T07:20:22.451Z,848
2018-05-07T07:20:43.709Z,848
2018-05-07T07:21:04.020Z,852
2018-05-07T07:21:24.455Z,852
2018-05-07T07:21:45.694Z,852
2018-05-07T07:22:06.096Z,852
2018-05-07T07:22:26.382Z,856
2018-05-07T07:22:46.585Z,852
2018-05-07T07:23:07.711Z,852
2018-05-07T07:23:28.397Z,852
2018-05-07T07:23:48.780Z,856
2018-05-07T07:24:09.176Z,856
2018-05-07T07:24:29.923Z,856
2018-05-07T07:24:50.393Z,856
2018-05-07T07:25:10.711Z,856
2018-05-07T07:25:31.046Z,856
2018-05-07T07:25:51.520Z,856
2018-05-07T07:26:11.861Z,856
2018-05-07T07:26:32.368Z,856
2018-05-07T07:26:52.728Z,860
2018-05-07T07:27:13.144Z,860
2018-05-07T07:27:33.437Z,860
2018-05-07T07:27:54.011Z,860
2018-05-07T07:28:15.508Z,864
2018-05-07T07:28:35.847Z,864
2018-05-07T07:28:56.065Z,864
2018-05-07T07:29:16.338Z,864
2018-05-07T07:29:37.198Z,868
2018-05-07T07:29:57.501Z,868
2018-05-07T07:30:17.799Z,868
2018-05-07T07:30:38.173Z,868
2018-05-07T07:30:58.618Z,872
2018-05-07T07:31:19.226Z,872
2018-05-07T07:31:39.644Z,872
2018-05-07T07:32:00.748Z,872
2018-05-07T07:32:21.275Z,872
2018-05-07T07:32:41.792Z,872
2018-05-07T07:33:02.275Z,872
2018-05-07T07:33:22.661Z,872
2018-05-07T07:33:43.225Z,872
2018-05-07T07:34:03.718Z,872
2018-05-07T07:34:24.725Z,876
2018-05-07T07:34:44.955Z,872
2018-05-07T07:35:05.245Z,876
2018-05-07T07:35:26.721Z,876
2018-05-07T07:35:47.281Z,880
2018-05-07T07:36:07.540Z,876
2018-05-07T07:36:27.811Z,876
2018-05-07T07:36:48.813Z,880
2018-05-07T07:37:09.313Z,880
2018-05-07T07:37:29.908Z,880
2018-05-07T07:37:50.200Z,880
2018-05-07T07:38:10.439Z,880
2018-05-07T07:38:30.653Z,880
2018-05-07T07:38:50.859Z,880
2018-05-07T07:39:11.369Z,884
2018-05-07T07:39:31.902Z,884
2018-05-07T07:39:52.363Z,884
2018-05-07T07:40:12.790Z,888
2018-05-07T07:40:33.250Z,888
2018-05-07T07:40:53.680Z,888
2018-05-07T07:41:14.124Z,888
2018-05-07T07:41:34.753Z,892
2018-05-07T07:41:55.108Z,892
2018-05-07T07:42:15.504Z,892
2018-05-07T07:42:35.792Z,892
2018-05-07T07:42:55.957Z,892
2018-05-07T07:43:17.449Z,896
2018-05-07T07:43:37.839Z,896
2018-05-07T07:43:58.229Z,896
2018-05-07T07:44:18.541Z,900
2018-05-07T07:44:39.703Z,896
2018-05-07T07:45:00.171Z,900
2018-05-07T07:45:20.523Z,900
2018-05-07T07:45:40.858Z,896
2018-05-07T07:46:01.037Z,900
2018-05-07T07:46:21.562Z,900
2018-05-07T07:46:42.004Z,900
2018-05-07T07:47:02.603Z,900
2018-05-07T07:47:23.389Z,904
2018-05-07T07:47:43.772Z,904
2018-05-07T07:48:05.286Z,904
2018-05-07T07:48:26.277Z,904
2018-05-07T07:48:46.672Z,904
2018-05-07T07:49:07.730Z,900
2018-05-07T07:49:28.643Z,904
2018-05-07T07:49:49.023Z,904
2018-05-07T07:50:10.231Z,908
2018-05-07T07:50:30.638Z,908
2018-05-07T07:50:51.070Z,908
2018-05-07T07:51:11.429Z,912
2018-05-07T07:51:32.816Z,912
2018-05-07T07:51:53.160Z,916
2018-05-07T07:52:13.704Z,916
2018-05-07T07:52:34.071Z,916
2018-05-07T07:52:54.349Z,916
2018-05-07T07:53:14.866Z,912
2018-05-07T07:53:35.521Z,916
2018-05-07T07:53:56.147Z,916
2018-05-07T07:54:16.528Z,916
2018-05-07T07:54:37.565Z,916
2018-05-07T07:54:58.075Z,916
2018-05-07T07:55:18.556Z,916
2018-05-07T07:55:38.950Z,920
2018-05-07T07:55:59.387Z,920
2018-05-07T07:56:20.798Z,920
2018-05-07T07:56:41.227Z,920
2018-05-07T07:57:01.885Z,920
2018-05-07T07:57:23.171Z,920
2018-05-07T07:57:43.539Z,920
2018-05-07T07:58:04.921Z,920
2018-05-07T07:58:26.689Z,924
2018-05-07T07:58:46.972Z,924
2018-05-07T07:59:07.455Z,920
2018-05-07T07:59:27.802Z,920
2018-05-07T07:59:48.204Z,924
2018-05-07T08:00:08.635Z,924
2018-05-07T08:00:29.758Z,924
2018-05-07T08:00:50.122Z,928
2018-05-07T08:01:10.670Z,928
2018-05-07T08:01:31.031Z,928
2018-05-07T08:01:52.690Z,924
2018-05-07T08:02:13.788Z,928
2018-05-07T08:02:34.190Z,928
2018-05-07T08:02:54.627Z,928
2018-05-07T08:03:15.005Z,928
2018-05-07T08:03:35.424Z,932
2018-05-07T08:03:55.896Z,932
2018-05-07T08:04:16.422Z,932
2018-05-07T08:04:37.749Z,932
2018-05-07T08:04:58.204Z,932
2018-05-07T08:05:19.833Z,932
2018-05-07T08:05:40.360Z,936
2018-05-07T08:06:00.690Z,932
2018-05-07T08:06:21.161Z,936
